CheckWX is a tool to help pilots better visualize weather data.  It is not intended as a substitute for an official pre-flight weather briefing.

07:59:46 UTC

LELL TAF
Sabadell Airport
Sabadell, Spain
TAF LELL 190200Z 1903/2003 VRB03KT 9999 FEW040 TX16/1913Z TN05/1906Z

Mar-19@
03:00 UTC

Mar-19 @ 03:00 UTC

Mar-20@
03:00 UTC

Mar-20 @ 03:00 UTC

TAF LELL 190200Z 1903/2003 VRB03KT 9999 FEW040 TX16/1913Z TN05/1906Z
Wind
  • Variable at 3 KTS
Cloud Levels
  • Few at 4,000' AGL